Etusivu
METAR-TAF:

METAR-TAF

Lentoasemat :

Kake, Alaska, Yhdysvallat

Leveyspiiri: 56-57N, Pituuspiiri: 133-54W, korkeus merenpinnasta: 52 m

Tämänhetkinen sää

Tämä raportti tehtiin 41 minuuttia sitten, kello 11.16 UTC
Tuuli 3 kn idästä/kaakosta
Lämpötila -3°C
Kosteus 100%
Ilmanpaine 1005 hPa
Näkyvyys: 0.4 km
Pilvistä 100 ft:n korkeudessa
jäätävää sumua

METAR: PAFE 171116Z AUTO 12003KT 1/4SM FZFG OVC001 M03/M03 A2968 RMK AO2 FZRANO

Aika: 02:57 (11:57 UTC)


TAF: puuttuu

Säähavainnot ja -ennusteet yli 4000 lentoasemalta (METAR- ja TAF-raportit).

Käytössä olevat sääasemat on merkitty karttaan keltaisilla ja punaisilla pisteillä.

Aseta hiiri pisteen päälle nähdäksesi sääaseman nimen.

Klikkaa sitten nähdäksesi säähavainnot ja -ennusteet.

Kartan vaihtaminen: klikkaa mustalla rastilla varustettuja vihreitä pisteitä, niin voit zoomata sisään; viivalla varustettua vihreää pistettä, niin voit zoomata ulos tai vihreitä nuolia, niin pääset viereisille kartoille.


METAR-TAF: